Time;durP1;ratioP1;P1;durP2;ratioP2;P2;SDS_P1;SDS_P2;PMS_P1;PMS_P2;Temp;Humidity;BMP_temperature;BMP_pressure;BME280_temperature;BME280_humidity;BME280_pressure;Samples;Min_cycle;Max_cycle;Signal;HPM_P1;HPM_P2
2023/12/24 00:02:03;;;;;;;0.60;0.60;;;17.40;63.20;;;;;;6139420;23;20178;-86
2023/12/24 00:04:32;;;;;;;0.60;0.60;;;17.40;63.40;;;;;;6164489;23;20603;-86
2023/12/24 00:07:00;;;;;;;1.02;0.60;;;17.40;63.20;;;;;;6113829;23;20285;-87
2023/12/24 00:09:26;;;;;;;0.73;0.50;;;17.30;63.50;;;;;;6089848;23;20162;-86
2023/12/24 00:11:52;;;;;;;0.75;0.50;;;17.30;63.30;;;;;;6163427;23;20593;-86
2023/12/24 00:14:18;;;;;;;0.70;0.50;;;17.30;63.10;;;;;;6163805;23;20645;-86
2023/12/24 00:16:44;;;;;;;0.50;0.50;;;17.40;63.20;;;;;;6189562;23;20192;-87
2023/12/24 00:19:10;;;;;;;0.75;0.60;;;17.30;63.20;;;;;;6163884;23;20576;-86
2023/12/24 00:21:35;;;;;;;0.60;0.50;;;17.30;63.40;;;;;;6164872;23;20466;-87
2023/12/24 00:24:01;;;;;;;0.90;0.50;;;17.30;63.20;;;;;;6139706;23;20161;-87
2023/12/24 00:26:27;;;;;;;0.70;0.70;;;17.30;63.10;;;;;;6189330;23;20608;-86
2023/12/24 00:28:55;;;;;;;0.80;0.70;;;17.40;63.20;;;;;;6188175;23;20134;-87
2023/12/24 00:31:21;;;;;;;0.88;0.63;;;17.30;63.20;;;;;;6189602;23;20181;-86
2023/12/24 00:33:49;;;;;;;0.75;0.57;;;17.30;64.00;;;;;;6189390;23;20629;-87
2023/12/24 00:36:14;;;;;;;0.93;0.70;;;17.30;63.20;;;;;;6164105;23;20130;-87
2023/12/24 00:38:40;;;;;;;0.70;0.60;;;17.30;63.20;;;;;;6189401;23;20138;-86
2023/12/24 00:41:06;;;;;;;0.75;0.60;;;17.30;63.20;;;;;;6214702;23;20130;-86
2023/12/24 00:43:34;;;;;;;0.98;0.60;;;17.30;63.20;;;;;;6164116;23;20231;-86
2023/12/24 00:46:02;;;;;;;0.75;0.55;;;17.30;63.30;;;;;;6137663;23;20162;-86
2023/12/24 00:48:30;;;;;;;0.52;0.52;;;17.30;63.10;;;;;;6114573;23;20488;-87
2023/12/24 00:50:58;;;;;;;0.68;0.47;;;17.30;63.30;;;;;;6139844;23;20154;-86
2023/12/24 00:53:26;;;;;;;0.55;0.47;;;17.30;63.20;;;;;;6139675;23;20185;-87
2023/12/24 00:55:52;;;;;;;0.77;0.68;;;17.30;63.10;;;;;;6089352;23;20165;-86
2023/12/24 00:58:20;;;;;;;0.98;0.57;;;17.30;63.10;;;;;;6214419;23;20130;-87
2023/12/24 01:00:46;;;;;;;1.10;0.50;;;17.30;63.20;;;;;;6127419;23;20672;-87
2023/12/24 01:03:13;;;;;;;0.50;0.43;;;17.20;63.20;;;;;;6163800;23;20269;-86
2023/12/24 01:05:41;;;;;;;0.93;0.77;;;17.30;63.20;;;;;;6164389;23;20134;-87
2023/12/24 01:08:07;;;;;;;0.93;0.80;;;17.30;62.90;;;;;;6113549;23;20160;-86
2023/12/24 01:10:33;;;;;;;0.70;0.50;;;17.30;63.00;;;;;;6164585;23;20221;-87
2023/12/24 01:12:59;;;;;;;0.63;0.60;;;17.30;63.00;;;;;;6162751;23;20162;-87
2023/12/24 01:15:27;;;;;;;0.50;0.47;;;17.30;63.00;;;;;;6163301;23;20200;-86
2023/12/24 01:17:53;;;;;;;0.60;0.50;;;17.30;63.20;;;;;;6088854;23;20154;-87
2023/12/24 01:20:21;;;;;;;0.90;0.50;;;17.30;62.80;;;;;;6188875;23;20200;-86
2023/12/24 01:22:46;;;;;;;1.05;0.68;;;17.30;63.10;;;;;;6113299;23;20181;-86
2023/12/24 01:25:12;;;;;;;0.68;0.60;;;17.20;63.10;;;;;;6163914;23;20565;-87
2023/12/24 01:27:38;;;;;;;0.70;0.50;;;17.30;62.90;;;;;;6140318;23;20204;-87
2023/12/24 01:30:05;;;;;;;0.77;0.65;;;17.30;63.00;;;;;;6140348;23;20154;-87
2023/12/24 01:32:32;;;;;;;0.60;0.60;;;17.30;62.40;;;;;;6163773;23;20213;-87
2023/12/24 01:34:58;;;;;;;0.93;0.52;;;17.30;62.80;;;;;;6112968;23;20158;-87
2023/12/24 01:37:24;;;;;;;0.90;0.68;;;17.30;62.60;;;;;;6163602;23;20131;-86
2023/12/24 01:39:50;;;;;;;0.50;0.50;;;17.30;62.90;;;;;;6163950;23;20134;-86
2023/12/24 01:42:15;;;;;;;1.00;0.70;;;17.30;62.70;;;;;;6163484;23;20127;-86
2023/12/24 01:44:44;;;;;;;0.60;0.60;;;17.20;62.90;;;;;;6163847;23;20138;-86
2023/12/24 01:47:10;;;;;;;0.60;0.60;;;17.30;62.80;;;;;;6089142;23;20193;-86
2023/12/24 01:49:39;;;;;;;0.50;0.50;;;17.30;62.90;;;;;;6164512;23;20126;-87
2023/12/24 01:54:31;;;;;;;0.88;0.70;;;17.30;62.80;;;;;;6182158;23;20567;-87
2023/12/24 01:56:58;;;;;;;0.70;0.60;;;17.30;62.70;;;;;;6137874;23;20215;-86
2023/12/24 01:59:25;;;;;;;0.68;0.68;;;17.20;62.60;;;;;;6187834;23;20139;-86
2023/12/24 02:01:52;;;;;;;0.90;0.68;;;17.20;62.70;;;;;;6186601;23;20138;-87
2023/12/24 02:04:18;;;;;;;0.98;0.80;;;17.30;62.70;;;;;;6136613;23;20147;-86
2023/12/24 02:06:47;;;;;;;1.30;0.82;;;17.20;62.60;;;;;;6135044;23;20143;-89
2023/12/24 02:09:14;;;;;;;0.60;0.60;;;17.20;62.80;;;;;;6135290;23;20154;-86
2023/12/24 02:11:41;;;;;;;0.80;0.73;;;17.30;62.70;;;;;;6133272;23;20150;-87
2023/12/24 02:14:08;;;;;;;0.60;0.60;;;17.30;62.50;;;;;;6108802;23;20516;-87
2023/12/24 02:16:37;;;;;;;1.10;0.80;;;17.30;62.80;;;;;;6132867;23;20158;-86
2023/12/24 02:19:03;;;;;;;0.60;0.60;;;17.30;62.90;;;;;;6159457;23;20166;-87
2023/12/24 02:21:29;;;;;;;0.50;0.50;;;17.30;62.50;;;;;;6159251;23;20131;-87
2023/12/24 02:23:55;;;;;;;0.75;0.50;;;17.30;62.40;;;;;;6133625;23;20563;-87
2023/12/24 02:26:37;;;;;;;0.75;0.60;;;17.20;62.70;;;;;;6132857;23;20455;-86
2023/12/24 02:29:10;;;;;;;1.00;0.70;;;17.30;62.50;;;;;;6158451;23;20578;-87
2023/12/24 02:31:37;;;;;;;0.63;0.60;;;17.20;62.50;;;;;;6183664;23;20134;-86
2023/12/24 02:34:05;;;;;;;0.90;0.70;;;17.20;62.60;;;;;;6184223;23;20549;-86
2023/12/24 02:36:31;;;;;;;0.82;0.60;;;17.30;62.50;;;;;;6107875;23;20155;-86
2023/12/24 02:38:57;;;;;;;0.77;0.70;;;17.30;62.40;;;;;;6133786;23;20201;-86
2023/12/24 02:43:49;;;;;;;0.73;0.70;;;17.20;62.70;;;;;;6214659;22;20613;-86
2023/12/24 02:46:15;;;;;;;0.60;0.60;;;17.30;62.30;;;;;;6139139;23;20246;-87
2023/12/24 02:48:41;;;;;;;0.85;0.57;;;17.20;62.80;;;;;;6162526;23;20221;-86
2023/12/24 02:51:07;;;;;;;0.63;0.57;;;17.20;62.10;;;;;;6163196;23;20664;-86
2023/12/24 02:53:34;;;;;;;0.75;0.60;;;17.30;62.60;;;;;;6187167;23;20224;-86
2023/12/24 02:56:00;;;;;;;0.88;0.63;;;17.20;62.80;;;;;;6111449;23;20154;-88
2023/12/24 02:58:25;;;;;;;0.70;0.50;;;17.20;62.80;;;;;;6187676;23;20238;-86
2023/12/24 03:01:11;;;;;;;0.90;0.70;;;17.20;62.50;;;;;;6188210;23;20137;-86
2023/12/24 03:03:39;;;;;;;1.05;0.63;;;17.20;62.70;;;;;;6162194;23;20181;-86
2023/12/24 03:06:05;;;;;;;0.93;0.65;;;17.20;62.50;;;;;;6137738;23;20544;-87
2023/12/24 03:08:31;;;;;;;0.70;0.70;;;17.20;62.70;;;;;;6106403;23;20207;-86
2023/12/24 03:10:58;;;;;;;0.75;0.60;;;17.20;62.50;;;;;;6104036;23;20183;-86
2023/12/24 03:13:23;;;;;;;1.70;0.80;;;17.20;62.40;;;;;;6105612;23;20617;-86
2023/12/24 03:15:50;;;;;;;0.80;0.60;;;17.20;62.70;;;;;;6081532;23;20151;-86
2023/12/24 03:18:16;;;;;;;1.02;0.50;;;17.20;62.50;;;;;;6106301;23;20136;-86
2023/12/24 03:20:43;;;;;;;0.85;0.60;;;17.20;62.70;;;;;;6124890;23;20261;-86
2023/12/24 03:23:08;;;;;;;0.80;0.60;;;17.10;62.50;;;;;;6132233;23;20159;-86
2023/12/24 03:28:00;;;;;;;0.93;0.60;;;17.20;62.60;;;;;;6186355;23;20214;-86
2023/12/24 03:30:26;;;;;;;0.65;0.50;;;17.20;62.60;;;;;;6162615;23;20206;-86
2023/12/24 03:32:52;;;;;;;0.82;0.80;;;17.20;62.50;;;;;;6163469;23;20689;-86
2023/12/24 03:35:18;;;;;;;0.60;0.60;;;17.20;62.30;;;;;;6141679;23;20501;-86
2023/12/24 03:37:44;;;;;;;0.68;0.60;;;17.20;62.20;;;;;;6169622;23;20130;-85
2023/12/24 03:40:11;;;;;;;0.82;0.60;;;17.20;62.40;;;;;;6145048;23;20157;-86
2023/12/24 03:42:37;;;;;;;1.10;0.80;;;17.20;62.20;;;;;;6164289;23;20639;-86
2023/12/24 03:47:28;;;;;;;0.70;0.55;;;17.20;62.50;;;;;;6157566;23;20214;-85
2023/12/24 03:49:55;;;;;;;0.60;0.60;;;17.20;62.40;;;;;;6134473;23;20132;-86
2023/12/24 03:52:21;;;;;;;0.55;0.50;;;17.20;62.30;;;;;;6160215;23;20135;-85
2023/12/24 03:54:50;;;;;;;0.80;0.60;;;17.10;62.40;;;;;;6156021;23;20142;-86
2023/12/24 03:57:19;;;;;;;0.57;0.57;;;17.20;62.20;;;;;;6105000;23;20158;-86
2023/12/24 03:59:45;;;;;;;0.73;0.60;;;17.20;61.90;;;;;;6104284;23;20163;-86
2023/12/24 04:02:13;;;;;;;0.90;0.70;;;17.20;62.10;;;;;;6154866;23;20131;-86
2023/12/24 04:04:44;;;;;;;0.93;0.82;;;17.20;62.50;;;;;;6129872;23;20162;-87
2023/12/24 04:07:12;;;;;;;0.88;0.60;;;17.20;62.40;;;;;;6129139;23;20239;-86
2023/12/24 04:09:40;;;;;;;0.70;0.55;;;17.20;62.20;;;;;;6104437;23;20238;-86
2023/12/24 04:12:06;;;;;;;0.85;0.70;;;17.20;62.30;;;;;;6101866;23;20204;-85
2023/12/24 04:14:32;;;;;;;0.80;0.68;;;17.20;62.10;;;;;;6124385;23;20180;-87
2023/12/24 04:16:58;;;;;;;0.70;0.50;;;17.10;62.10;;;;;;6124854;23;20358;-85
2023/12/24 04:19:23;;;;;;;1.02;0.70;;;17.10;62.30;;;;;;6103601;23;20638;-86
2023/12/24 04:24:20;;;;;;;0.70;0.68;;;17.10;62.10;;;;;;6167990;23;20210;-87
2023/12/24 04:26:48;;;;;;;0.52;0.50;;;17.10;62.20;;;;;;6111015;23;20147;-87
2023/12/24 04:29:14;;;;;;;0.50;0.47;;;17.20;62.10;;;;;;6085491;23;20205;-87
2023/12/24 04:31:40;;;;;;;0.63;0.63;;;17.10;62.30;;;;;;6085169;23;20237;-87
2023/12/24 04:34:07;;;;;;;0.60;0.60;;;17.10;62.30;;;;;;6135572;23;20217;-88
2023/12/24 04:36:34;;;;;;;0.75;0.70;;;17.10;62.30;;;;;;6159625;23;20147;-88
2023/12/24 04:39:02;;;;;;;0.52;0.50;;;17.20;62.40;;;;;;6110883;23;20151;-87
2023/12/24 04:41:28;;;;;;;0.75;0.60;;;17.10;62.30;;;;;;6135307;23;20146;-86
2023/12/24 04:43:55;;;;;;;0.68;0.60;;;17.10;62.00;;;;;;6185437;23;20571;-87
2023/12/24 04:46:24;;;;;;;0.57;0.55;;;17.10;62.10;;;;;;6158394;23;20147;-85
2023/12/24 04:48:52;;;;;;;0.52;0.52;;;17.10;62.00;;;;;;6135077;23;20159;-86
2023/12/24 04:51:22;;;;;;;1.13;0.88;;;17.10;62.10;;;;;;6110397;23;20166;-87
2023/12/24 04:53:50;;;;;;;0.80;0.70;;;17.10;62.30;;;;;;6100213;23;20203;-87
2023/12/24 04:56:20;;;;;;;0.85;0.70;;;17.10;62.40;;;;;;6075626;23;20163;-87
2023/12/24 04:58:46;;;;;;;0.88;0.57;;;17.00;61.80;;;;;;6075994;23;20227;-87
2023/12/24 05:01:15;;;;;;;0.68;0.60;;;17.10;62.00;;;;;;6076171;23;20223;-85
2023/12/24 05:03:43;;;;;;;0.50;0.50;;;17.10;61.90;;;;;;6076011;23;20235;-87
2023/12/24 05:06:08;;;;;;;0.60;0.60;;;17.10;62.10;;;;;;6073724;23;20262;-86
2023/12/24 05:08:34;;;;;;;0.60;0.60;;;17.10;62.10;;;;;;6099935;23;20168;-86
2023/12/24 05:11:06;;;;;;;0.77;0.60;;;17.10;61.90;;;;;;6075676;23;20543;-86
2023/12/24 05:13:32;;;;;;;0.80;0.52;;;17.10;61.90;;;;;;6125433;23;20496;-85
2023/12/24 05:15:58;;;;;;;0.80;0.70;;;17.10;62.10;;;;;;6076519;23;20164;-86
2023/12/24 05:18:24;;;;;;;1.15;0.70;;;17.10;61.70;;;;;;6075793;23;20137;-87
2023/12/24 05:20:52;;;;;;;0.60;0.52;;;17.10;61.60;;;;;;6075530;23;20180;-86
2023/12/24 05:23:21;;;;;;;0.90;0.70;;;17.10;62.00;;;;;;6075012;23;20247;-85
2023/12/24 05:25:50;;;;;;;1.17;0.60;;;17.10;61.80;;;;;;6075947;23;20163;-86
2023/12/24 05:28:17;;;;;;;0.73;0.52;;;17.10;62.00;;;;;;6074926;23;20163;-86
2023/12/24 05:30:46;;;;;;;0.60;0.60;;;17.10;62.00;;;;;;6125235;23;20129;-86
2023/12/24 05:33:12;;;;;;;1.15;0.90;;;17.10;62.00;;;;;;6101223;23;20235;-85
2023/12/24 05:35:38;;;;;;;0.73;0.68;;;17.10;61.90;;;;;;6110228;23;20482;-85
2023/12/24 05:38:05;;;;;;;1.08;0.80;;;17.10;61.80;;;;;;6134752;23;20139;-86
2023/12/24 05:40:31;;;;;;;0.95;0.75;;;17.10;62.00;;;;;;6158756;23;20131;-86
2023/12/24 05:42:57;;;;;;;0.68;0.60;;;17.10;61.90;;;;;;6158738;23;20151;-87
2023/12/24 05:45:24;;;;;;;0.98;0.77;;;17.10;61.80;;;;;;6109652;23;20222;-86
2023/12/24 05:47:49;;;;;;;0.98;0.80;;;17.10;61.70;;;;;;6134396;23;20139;-85
2023/12/24 05:50:17;;;;;;;0.82;0.50;;;17.10;61.60;;;;;;6108561;23;20234;-85
2023/12/24 05:52:46;;;;;;;0.80;0.70;;;17.10;61.80;;;;;;6109186;23;20154;-85
2023/12/24 05:55:14;;;;;;;1.10;0.65;;;17.10;61.70;;;;;;6087136;23;20485;-87
2023/12/24 05:57:41;;;;;;;0.60;0.60;;;17.00;61.70;;;;;;6084639;23;20159;-86
2023/12/24 06:00:09;;;;;;;0.75;0.60;;;17.10;61.60;;;;;;6108403;23;20154;-85
2023/12/24 06:02:35;;;;;;;0.98;0.70;;;17.10;61.80;;;;;;6108891;23;20198;-86
2023/12/24 06:05:01;;;;;;;0.90;0.80;;;17.10;61.70;;;;;;6133633;23;20150;-86
2023/12/24 06:07:28;;;;;;;0.60;0.60;;;17.10;61.70;;;;;;6109704;23;20642;-85
2023/12/24 06:09:55;;;;;;;0.55;0.55;;;17.00;61.60;;;;;;6107632;23;20169;-84
2023/12/24 06:12:21;;;;;;;0.80;0.70;;;17.10;61.70;;;;;;6158053;23;20225;-85
2023/12/24 06:14:47;;;;;;;0.98;0.70;;;17.10;61.80;;;;;;6109729;23;20656;-86
2023/12/24 06:17:12;;;;;;;0.82;0.55;;;17.00;61.60;;;;;;6130855;23;20251;-85
2023/12/24 06:19:38;;;;;;;0.77;0.60;;;17.10;61.60;;;;;;6130763;23;20198;-88
2023/12/24 06:22:05;;;;;;;0.70;0.70;;;17.00;61.70;;;;;;6109225;23;20589;-85
2023/12/24 06:24:31;;;;;;;0.50;0.50;;;17.00;61.60;;;;;;6084637;23;20155;-85
2023/12/24 06:26:58;;;;;;;0.80;0.80;;;17.10;61.60;;;;;;6157572;23;20185;-86
2023/12/24 06:29:24;;;;;;;0.70;0.63;;;17.10;61.50;;;;;;6083726;23;20237;-86
2023/12/24 06:31:50;;;;;;;0.60;0.60;;;17.00;61.40;;;;;;6133667;23;20594;-85
2023/12/24 06:34:17;;;;;;;0.70;0.70;;;17.00;61.60;;;;;;6133116;23;20186;-85
2023/12/24 06:36:45;;;;;;;0.57;0.57;;;17.10;61.80;;;;;;6085016;23;20229;-85
2023/12/24 06:39:12;;;;;;;0.70;0.60;;;17.00;61.60;;;;;;6109589;23;20161;-85
2023/12/24 06:41:40;;;;;;;0.93;0.75;;;17.00;61.60;;;;;;6085647;23;20151;-85
2023/12/24 06:44:07;;;;;;;0.63;0.60;;;16.90;61.60;;;;;;6109745;23;20161;-85
2023/12/24 06:46:35;;;;;;;0.93;0.60;;;17.00;61.50;;;;;;6086692;23;20155;-85
2023/12/24 06:49:02;;;;;;;0.90;0.65;;;17.00;61.60;;;;;;6111745;23;20155;-85
2023/12/24 06:51:30;;;;;;;0.60;0.57;;;17.00;61.60;;;;;;6087671;23;20506;-85
2023/12/24 06:56:23;;;;;;;0.70;0.63;;;17.00;61.30;;;;;;6187074;23;20206;-85
2023/12/24 06:58:48;;;;;;;1.10;0.85;;;17.00;61.30;;;;;;6122127;23;20214;-85
2023/12/24 07:01:16;;;;;;;0.65;0.65;;;17.00;61.20;;;;;;6161100;23;20151;-85
2023/12/24 07:03:43;;;;;;;0.60;0.55;;;17.00;61.20;;;;;;6087212;23;20169;-85
2023/12/24 07:06:10;;;;;;;0.90;0.70;;;17.00;61.30;;;;;;6111393;23;20151;-85
2023/12/24 07:08:38;;;;;;;0.63;0.50;;;17.00;61.30;;;;;;6111349;23;20150;-85
2023/12/24 07:11:05;;;;;;;1.33;0.70;;;17.00;61.40;;;;;;6136322;23;20214;-85
2023/12/24 07:13:32;;;;;;;0.55;0.55;;;17.00;61.40;;;;;;6085297;23;20186;-85
2023/12/24 07:16:00;;;;;;;0.65;0.57;;;17.00;61.30;;;;;;6109117;23;20616;-86
2023/12/24 07:18:27;;;;;;;0.60;0.60;;;17.00;61.40;;;;;;6061518;23;20161;-86
2023/12/24 07:20:54;;;;;;;0.60;0.60;;;17.10;61.30;;;;;;6061346;23;20178;-85
2023/12/24 07:23:21;;;;;;;0.80;0.60;;;17.10;61.00;;;;;;6109020;23;20482;-85
2023/12/24 07:25:48;;;;;;;1.08;0.70;;;17.00;61.30;;;;;;6095417;23;1533228;-85
2023/12/24 07:28:14;;;;;;;1.73;0.70;;;17.00;61.10;;;;;;6111202;23;20158;-85
2023/12/24 07:30:40;;;;;;;1.00;0.80;;;17.00;61.30;;;;;;6135243;23;20201;-86
2023/12/24 07:33:06;;;;;;;1.05;0.73;;;17.00;61.30;;;;;;6136325;23;20468;-85
2023/12/24 07:35:33;;;;;;;0.77;0.60;;;17.00;61.00;;;;;;6136150;23;20298;-85
2023/12/24 07:37:59;;;;;;;0.95;0.70;;;17.00;61.20;;;;;;6136172;23;20147;-84
2023/12/24 07:40:25;;;;;;;0.70;0.65;;;17.00;61.30;;;;;;6160738;23;20139;-84
2023/12/24 07:45:17;;;;;;;1.10;0.85;;;17.00;61.40;;;;;;6185551;23;20718;-86
2023/12/24 07:47:42;;;;;;;1.10;0.70;;;17.00;61.40;;;;;;6110079;23;20543;-85
2023/12/24 07:50:08;;;;;;;0.68;0.50;;;17.00;61.10;;;;;;6130021;23;20206;-85
2023/12/24 07:52:38;;;;;;;0.45;0.40;;;17.00;61.00;;;;;;6105826;23;20198;-85
2023/12/24 07:55:07;;;;;;;0.90;0.63;;;17.00;61.20;;;;;;6105271;23;20159;-84
2023/12/24 07:57:33;;;;;;;0.70;0.70;;;17.00;61.00;;;;;;6093809;23;20210;-84
2023/12/24 08:00:02;;;;;;;1.25;0.80;;;17.00;60.90;;;;;;6095524;23;20133;-85
2023/12/24 08:02:30;;;;;;;0.55;0.52;;;17.00;61.30;;;;;;6071025;23;20152;-85
2023/12/24 08:07:23;;;;;;;0.60;0.60;;;17.00;60.70;;;;;;6156150;23;20329;-85
2023/12/24 08:09:52;;;;;;;0.73;0.60;;;17.00;60.70;;;;;;6081661;23;20159;-86
2023/12/24 08:12:19;;;;;;;0.50;0.50;;;17.00;60.70;;;;;;6081363;23;20294;-86
2023/12/24 08:14:46;;;;;;;0.47;0.47;;;17.00;60.00;;;;;;6153060;23;20241;-86
2023/12/24 08:17:16;;;;;;;1.08;0.70;;;17.10;59.80;;;;;;6111499;23;20865;-87
2023/12/24 08:19:43;;;;;;;0.70;0.50;;;17.10;60.20;;;;;;6184370;23;20130;-86
2023/12/24 08:22:11;;;;;;;0.70;0.60;;;17.10;60.00;;;;;;6158780;23;20165;-86
2023/12/24 08:24:38;;;;;;;1.13;0.82;;;17.10;59.80;;;;;;6107764;23;20693;-86
2023/12/24 08:27:06;;;;;;;0.70;0.50;;;17.10;59.70;;;;;;6084745;23;20151;-86
2023/12/24 08:29:34;;;;;;;0.88;0.50;;;17.10;60.00;;;;;;6086042;23;20301;-86
2023/12/24 08:32:04;;;;;;;1.00;0.70;;;17.10;59.90;;;;;;6108809;23;20163;-86
2023/12/24 08:37:12;;;;;;;0.63;0.63;;;17.10;60.00;;;;;;6176503;23;20206;-87
2023/12/24 08:39:40;;;;;;;0.82;0.80;;;17.10;60.00;;;;;;6084754;23;20495;-87
2023/12/24 08:42:06;;;;;;;0.65;0.60;;;17.10;59.90;;;;;;6085043;23;20232;-87
2023/12/24 08:44:32;;;;;;;0.70;0.60;;;17.10;59.70;;;;;;6133840;23;20158;-87
2023/12/24 08:46:58;;;;;;;0.70;0.68;;;17.10;59.90;;;;;;6158530;23;20155;-87
2023/12/24 08:49:29;;;;;;;0.60;0.57;;;17.10;59.80;;;;;;6109494;23;20154;-87
2023/12/24 08:51:59;;;;;;;1.20;0.73;;;17.00;59.50;;;;;;6111002;23;20158;-88
2023/12/24 08:54:26;;;;;;;0.50;0.50;;;17.10;59.80;;;;;;6040605;23;20228;-87
2023/12/24 08:59:39;;;;;;;1.00;0.70;;;17.10;59.80;;;;;;6183380;23;20213;-86
2023/12/24 09:02:25;;;;;;;0.68;0.57;;;17.10;59.80;;;;;;6135172;23;20173;-86
2023/12/24 09:04:52;;;;;;;0.70;0.65;;;17.10;60.00;;;;;;6067982;23;20157;-86
2023/12/24 09:07:19;;;;;;;0.70;0.70;;;17.10;59.80;;;;;;6042131;23;20152;-85
2023/12/24 09:09:44;;;;;;;0.55;0.55;;;17.10;59.60;;;;;;6041271;23;20157;-85
2023/12/24 09:12:10;;;;;;;0.63;0.50;;;17.10;59.50;;;;;;6066119;23;20196;-85
2023/12/24 09:14:36;;;;;;;0.80;0.80;;;17.10;59.30;;;;;;6041742;23;20296;-85
2023/12/24 09:17:05;;;;;;;0.88;0.60;;;17.10;59.70;;;;;;6066138;23;20141;-84
2023/12/24 09:19:31;;;;;;;0.57;0.50;;;17.10;59.60;;;;;;6043376;23;20160;-84
2023/12/24 09:21:57;;;;;;;1.00;0.70;;;17.10;59.70;;;;;;6069802;23;20213;-85
2023/12/24 09:24:23;;;;;;;0.68;0.68;;;17.10;59.40;;;;;;6047140;23;20541;-85
2023/12/24 09:26:58;;;;;;;0.60;0.60;;;17.10;59.20;;;;;;6047690;23;20150;-86
2023/12/24 09:29:23;;;;;;;0.57;0.57;;;17.10;59.30;;;;;;6071080;23;20157;-85
2023/12/24 09:31:49;;;;;;;0.82;0.70;;;17.10;59.30;;;;;;6048074;23;20209;-85
2023/12/24 09:34:16;;;;;;;1.38;0.88;;;17.10;58.50;;;;;;6024405;23;20185;-84
2023/12/24 09:39:14;;;;;;;0.75;0.73;;;17.20;59.00;;;;;;6187399;23;20270;-84
2023/12/24 09:41:40;;;;;;;0.60;0.60;;;17.10;59.30;;;;;;6120727;23;20584;-85
2023/12/24 09:44:08;;;;;;;0.60;0.60;;;17.10;59.00;;;;;;6159981;23;20150;-86
2023/12/24 09:46:40;;;;;;;0.73;0.57;;;17.20;59.00;;;;;;6135686;23;20511;-86
2023/12/24 09:49:06;;;;;;;0.85;0.70;;;17.10;59.20;;;;;;6111518;23;20182;-86
2023/12/24 09:51:33;;;;;;;0.40;0.40;;;17.10;59.00;;;;;;6157941;23;20205;-85
2023/12/24 09:53:59;;;;;;;0.65;0.60;;;17.10;59.30;;;;;;6158790;23;20171;-85
2023/12/24 10:01:41;;;;;;;0.80;0.68;;;17.10;59.30;;;;;;6131022;23;20181;-84
2023/12/24 10:04:09;;;;;;;0.95;0.65;;;17.10;58.60;;;;;;6156973;23;20518;-84
2023/12/24 10:06:52;;;;;;;0.80;0.77;;;17.10;59.20;;;;;;6132611;23;20169;-85
2023/12/24 10:09:20;;;;;;;0.90;0.90;;;17.10;59.10;;;;;;6183226;23;20123;-86
2023/12/24 10:11:46;;;;;;;0.70;0.60;;;17.20;58.30;;;;;;6159064;23;20482;-86
2023/12/24 10:14:15;;;;;;;0.60;0.60;;;17.10;58.80;;;;;;6158614;23;20182;-84
2023/12/24 10:16:43;;;;;;;0.68;0.60;;;17.10;58.50;;;;;;6183650;23;20218;-85
2023/12/24 10:19:21;;;;;;;0.75;0.60;;;17.10;58.20;;;;;;6158049;23;20229;-85
2023/12/24 10:21:59;;;;;;;0.80;0.70;;;17.10;58.30;;;;;;6158861;23;20516;-85
2023/12/24 10:24:27;;;;;;;0.80;0.60;;;17.10;58.70;;;;;;6185909;23;20135;-85
2023/12/24 10:27:04;;;;;;;0.70;0.60;;;17.20;58.90;;;;;;6160517;23;20147;-85
2023/12/24 10:29:33;;;;;;;0.60;0.60;;;17.10;58.20;;;;;;6186091;23;20167;-86
2023/12/24 10:32:00;;;;;;;0.70;0.70;;;17.20;58.40;;;;;;6159898;23;20155;-85
2023/12/24 10:34:30;;;;;;;0.50;0.50;;;17.20;59.30;;;;;;6133759;23;20625;-87
2023/12/24 10:37:00;;;;;;;0.80;0.60;;;17.20;58.10;;;;;;6184778;23;20166;-86
2023/12/24 10:39:28;;;;;;;0.55;0.55;;;17.20;58.50;;;;;;6134296;23;20594;-85
2023/12/24 10:41:56;;;;;;;0.57;0.55;;;17.20;58.40;;;;;;6110026;23;20209;-85
2023/12/24 10:44:24;;;;;;;0.80;0.60;;;17.20;58.40;;;;;;6159200;23;20155;-86
2023/12/24 10:46:50;;;;;;;0.70;0.55;;;17.10;58.50;;;;;;6135714;23;20147;-86
2023/12/24 10:49:16;;;;;;;0.80;0.60;;;17.20;58.80;;;;;;6187606;23;20558;-83
2023/12/24 10:51:48;;;;;;;0.70;0.70;;;17.20;58.60;;;;;;6187562;23;20127;-88
2023/12/24 10:54:14;;;;;;;0.80;0.70;;;17.20;58.60;;;;;;6099897;23;20192;-86
2023/12/24 10:57:12;;;;;;;0.75;0.50;;;17.10;58.60;;;;;;6101761;23;20226;-85
2023/12/24 11:02:47;;;;;;;0.77;0.60;;;17.20;58.60;;;;;;6083076;23;20148;-86
2023/12/24 11:05:48;;;;;;;0.60;0.50;;;17.20;58.10;;;;;;6029651;23;20175;-85
2023/12/24 11:08:30;;;;;;;0.70;0.70;;;17.20;58.50;;;;;;6139698;23;20653;-85
2023/12/24 11:10:57;;;;;;;0.50;0.50;;;17.10;58.90;;;;;;6134594;23;20139;-85
2023/12/24 11:13:46;;;;;;;0.90;0.70;;;17.20;58.20;;;;;;6135057;23;20186;-84
2023/12/24 11:16:18;;;;;;;0.60;0.60;;;17.10;58.60;;;;;;6140422;23;20139;-85
2023/12/24 11:18:46;;;;;;;0.60;0.60;;;17.10;58.00;;;;;;6111888;23;20170;-85
2023/12/24 11:21:15;;;;;;;0.70;0.65;;;17.20;57.90;;;;;;6135681;23;20174;-84
2023/12/24 11:23:42;;;;;;;1.02;0.50;;;17.10;57.70;;;;;;6135131;23;20194;-86
2023/12/24 11:26:31;;;;;;;0.77;0.77;;;17.20;58.50;;;;;;6135232;23;20137;-84
2023/12/24 11:29:02;;;;;;;0.95;0.60;;;17.10;58.50;;;;;;6160095;23;20177;-85
2023/12/24 11:31:28;;;;;;;0.82;0.75;;;17.10;58.50;;;;;;6086135;23;20155;-86
2023/12/24 11:33:58;;;;;;;0.55;0.55;;;17.10;58.30;;;;;;6135101;23;20190;-84
2023/12/24 11:36:28;;;;;;;0.57;0.50;;;17.10;57.90;;;;;;6062229;23;20205;-86
2023/12/24 11:38:58;;;;;;;0.60;0.60;;;17.20;58.10;;;;;;6110449;23;20494;-85
2023/12/24 11:41:24;;;;;;;0.75;0.60;;;17.20;58.30;;;;;;6085525;23;20163;-85
2023/12/24 11:43:59;;;;;;;0.90;0.70;;;17.10;58.40;;;;;;6111215;23;20151;-86
2023/12/24 11:46:35;;;;;;;0.60;0.57;;;17.20;57.80;;;;;;6135446;23;20134;-85
2023/12/24 11:49:06;;;;;;;0.70;0.63;;;17.20;57.90;;;;;;6087611;23;20154;-86
2023/12/24 11:51:34;;;;;;;0.80;0.60;;;17.10;58.00;;;;;;6086377;23;20150;-85
2023/12/24 11:56:27;;;;;;;0.47;0.47;;;17.20;57.70;;;;;;6187765;23;20209;-85
2023/12/24 11:58:59;;;;;;;0.57;0.55;;;17.20;58.40;;;;;;6163715;23;20652;-84
2023/12/24 12:01:34;;;;;;;0.80;0.60;;;17.20;58.20;;;;;;6111792;23;20158;-85
2023/12/24 12:04:20;;;;;;;0.88;0.73;;;17.10;58.30;;;;;;6165288;23;20132;-86
2023/12/24 12:07:04;;;;;;;0.50;0.50;;;17.20;58.10;;;;;;6164478;23;20145;-85
2023/12/24 12:09:30;;;;;;;0.50;0.45;;;17.20;58.20;;;;;;6114302;23;20176;-85
2023/12/24 12:11:56;;;;;;;0.52;0.52;;;17.10;58.20;;;;;;6189114;23;20629;-86
2023/12/24 12:14:22;;;;;;;0.70;0.70;;;17.10;57.50;;;;;;6189173;23;20185;-85
2023/12/24 12:16:48;;;;;;;0.68;0.52;;;17.10;57.70;;;;;;6183004;23;20297;-86
2023/12/24 12:19:15;;;;;;;1.00;0.52;;;17.20;57.80;;;;;;6184301;23;20585;-86
2023/12/24 12:21:40;;;;;;;0.77;0.60;;;17.10;57.90;;;;;;6134890;23;20245;-86
2023/12/24 12:24:06;;;;;;;0.52;0.52;;;17.20;57.50;;;;;;6184239;23;20169;-85
2023/12/24 12:26:32;;;;;;;0.88;0.60;;;17.10;57.60;;;;;;6158878;23;20135;-86
2023/12/24 12:29:01;;;;;;;0.77;0.73;;;17.20;57.50;;;;;;6159728;23;20135;-85
2023/12/24 12:31:30;;;;;;;0.75;0.60;;;17.10;57.50;;;;;;6108220;23;20169;-86
2023/12/24 12:33:55;;;;;;;0.77;0.63;;;17.20;57.70;;;;;;6133031;23;20186;-85
2023/12/24 12:36:23;;;;;;;0.50;0.50;;;17.20;57.90;;;;;;6134715;23;20490;-86
2023/12/24 12:38:51;;;;;;;0.90;0.70;;;17.20;57.80;;;;;;6133542;23;20157;-86
2023/12/24 12:41:19;;;;;;;0.60;0.60;;;17.20;57.40;;;;;;6110272;23;20154;-85
2023/12/24 12:43:47;;;;;;;0.60;0.57;;;17.20;57.40;;;;;;6109719;23;20181;-85
2023/12/24 12:46:14;;;;;;;0.52;0.50;;;17.20;57.70;;;;;;6110076;23;20583;-85
2023/12/24 12:48:42;;;;;;;0.85;0.77;;;17.10;57.60;;;;;;6134483;23;20206;-84
2023/12/24 12:51:09;;;;;;;0.80;0.65;;;17.10;57.50;;;;;;6110510;23;20181;-85
2023/12/24 12:53:37;;;;;;;0.90;0.60;;;17.20;57.10;;;;;;6109861;23;20281;-85
2023/12/24 12:56:07;;;;;;;0.60;0.60;;;17.10;57.50;;;;;;6110533;23;20151;-85
2023/12/24 12:58:32;;;;;;;0.60;0.50;;;17.20;57.40;;;;;;6110800;23;20208;-86
2023/12/24 13:01:01;;;;;;;0.95;0.60;;;17.20;57.40;;;;;;6133682;23;20172;-86
2023/12/24 13:08:32;;;;;;;0.50;0.50;;;17.10;57.40;;;;;;6210656;23;20629;-85
2023/12/24 13:11:07;;;;;;;0.90;0.70;;;17.20;57.30;;;;;;6114382;23;20212;-85
2023/12/24 13:13:34;;;;;;;1.05;0.90;;;17.10;57.40;;;;;;6114886;23;20208;-85
2023/12/24 13:16:07;;;;;;;0.60;0.60;;;17.20;57.40;;;;;;6113866;23;20165;-85
2023/12/24 13:18:34;;;;;;;0.65;0.52;;;17.20;56.80;;;;;;6140277;23;20158;-85
2023/12/24 13:21:03;;;;;;;0.73;0.63;;;17.20;57.60;;;;;;6136807;23;20525;-85
2023/12/24 13:23:30;;;;;;;1.02;0.80;;;17.20;57.50;;;;;;6114059;23;20158;-85
2023/12/24 13:25:56;;;;;;;0.60;0.60;;;17.10;57.70;;;;;;6163141;23;20150;-86
2023/12/24 13:28:25;;;;;;;0.90;0.75;;;17.20;57.50;;;;;;6187453;23;20310;-85
2023/12/24 13:30:54;;;;;;;0.77;0.68;;;17.20;57.10;;;;;;6114614;23;20169;-85
2023/12/24 13:33:22;;;;;;;0.60;0.60;;;17.10;57.70;;;;;;6176488;23;20533;-85
2023/12/24 13:35:49;;;;;;;1.00;0.70;;;17.20;57.50;;;;;;6108532;23;20154;-86